createdAt,value
2022-08-30T00:02:09.313Z,96174.59
2022-08-30T00:04:35.877Z,96173.94
2022-08-30T00:07:03.835Z,96180.22
2022-08-30T00:09:32.033Z,96177.47
2022-08-30T00:11:58.588Z,96183.03
2022-08-30T00:14:27.525Z,96184.19
2022-08-30T00:16:54.275Z,96177.41
2022-08-30T00:19:20.881Z,96180.06
2022-08-30T00:21:47.414Z,96185.97
2022-08-30T00:24:13.937Z,96180.66
2022-08-30T00:26:40.478Z,96181.31
2022-08-30T00:29:07.025Z,96184.06
2022-08-30T00:31:33.592Z,96179.41
2022-08-30T00:34:00.189Z,96180.50
2022-08-30T00:36:27.731Z,96171.78
2022-08-30T00:38:54.382Z,96179.22
2022-08-30T00:41:22.025Z,96181.72
2022-08-30T00:43:48.710Z,96184.22
2022-08-30T00:46:15.272Z,96193.63
2022-08-30T00:48:48.007Z,96187.06
2022-08-30T00:51:16.158Z,96188.75
2022-08-30T00:53:46.593Z,96195.31
2022-08-30T00:56:13.750Z,96184.66
2022-08-30T00:58:45.741Z,96184.22
2022-08-30T01:01:13.056Z,96190.81
2022-08-30T01:03:41.378Z,96183.91
2022-08-30T01:06:08.134Z,96187.03
2022-08-30T01:08:35.354Z,96182.97
2022-08-30T01:11:03.790Z,96176.81
2022-08-30T01:13:31.796Z,96180.72
2022-08-30T01:16:00.153Z,96179.50
2022-08-30T01:18:27.923Z,96184.50
2022-08-30T01:21:28.270Z,96177.56
2022-08-30T01:23:59.592Z,96182.75
2022-08-30T01:26:28.691Z,96186.28
2022-08-30T01:28:57.055Z,96184.75
2022-08-30T01:31:24.154Z,96183.31
2022-08-30T01:33:51.158Z,96180.03
2022-08-30T01:36:20.099Z,96180.25
2022-08-30T01:38:50.278Z,96180.09
2022-08-30T01:41:20.894Z,96172.56
2022-08-30T01:43:48.562Z,96171.56
2022-08-30T01:46:17.999Z,96166.69
2022-08-30T01:48:51.962Z,96164.25
2022-08-30T01:51:21.984Z,96160.19
2022-08-30T01:53:48.561Z,96170.41
2022-08-30T01:56:15.643Z,96161.81
2022-08-30T01:58:43.388Z,96158.56
2022-08-30T02:01:12.880Z,96173.06
2022-08-30T02:03:41.603Z,96169.97
2022-08-30T02:06:11.137Z,96169.50
2022-08-30T02:08:40.205Z,96167.31
2022-08-30T02:11:09.449Z,96163.81
2022-08-30T02:13:40.241Z,96161.16
2022-08-30T02:16:14.126Z,96163.44
2022-08-30T02:18:40.815Z,96165.31
2022-08-30T02:21:08.239Z,96172.03
2022-08-30T02:23:35.105Z,96163.44
2022-08-30T02:26:01.924Z,96168.97
2022-08-30T02:28:29.196Z,96168.00
2022-08-30T02:30:55.851Z,96168.44
2022-08-30T02:33:22.530Z,96167.28
2022-08-30T02:35:49.134Z,96170.94
2022-08-30T02:38:15.903Z,96168.06
2022-08-30T02:40:46.645Z,96173.16
2022-08-30T02:43:13.332Z,96169.94
2022-08-30T02:45:40.007Z,96178.09
2022-08-30T02:48:06.654Z,96175.88
2022-08-30T02:50:33.477Z,96176.50
2022-08-30T02:53:00.094Z,96165.63
2022-08-30T02:55:26.857Z,96162.97
2022-08-30T02:57:53.449Z,96164.00
2022-08-30T03:00:20.932Z,96170.34
2022-08-30T03:02:48.106Z,96171.41
2022-08-30T03:05:16.425Z,96168.94
2022-08-30T03:07:43.606Z,96169.41
2022-08-30T03:10:11.034Z,96164.06
2022-08-30T03:12:38.309Z,96169.41
2022-08-30T03:15:06.713Z,96166.28
2022-08-30T03:17:33.369Z,96160.16
2022-08-30T03:20:02.292Z,96164.00
2022-08-30T03:22:29.424Z,96164.63
2022-08-30T03:25:00.157Z,96153.78
2022-08-30T03:27:27.797Z,96154.66
2022-08-30T03:29:55.092Z,96157.16
2022-08-30T03:32:21.904Z,96156.56
2022-08-30T03:34:48.486Z,96158.22
2022-08-30T03:37:15.019Z,96155.75
2022-08-30T03:39:41.636Z,96166.03
2022-08-30T03:42:08.376Z,96175.25
2022-08-30T03:44:35.574Z,96165.50
2022-08-30T03:47:03.567Z,96164.28
2022-08-30T03:49:30.202Z,96165.09
2022-08-30T03:51:56.782Z,96162.44
2022-08-30T03:54:24.758Z,96157.28
2022-08-30T03:56:51.802Z,96161.72
2022-08-30T03:59:18.480Z,96164.53
2022-08-30T04:01:45.950Z,96164.31
2022-08-30T04:04:14.515Z,96162.94
2022-08-30T04:06:42.875Z,96168.94
2022-08-30T04:09:09.803Z,96168.56
2022-08-30T04:11:36.392Z,96171.88
2022-08-30T04:14:02.996Z,96179.47
2022-08-30T04:16:29.656Z,96181.09
2022-08-30T04:18:56.313Z,96186.78
2022-08-30T04:21:23.151Z,96181.47
2022-08-30T04:23:49.731Z,96179.63
2022-08-30T04:26:16.334Z,96178.22
2022-08-30T04:28:42.900Z,96185.16
2022-08-30T04:31:16.787Z,96178.81
2022-08-30T04:33:43.972Z,96184.72
2022-08-30T04:36:10.944Z,96193.31
2022-08-30T04:38:39.320Z,96192.88
2022-08-30T04:41:16.361Z,96187.53
2022-08-30T04:43:44.726Z,96194.72
2022-08-30T04:46:13.899Z,96195.53
2022-08-30T04:48:40.775Z,96197.78
2022-08-30T04:51:10.859Z,96189.59
2022-08-30T04:53:37.615Z,96202.72
2022-08-30T04:56:09.468Z,96203.28
2022-08-30T04:58:36.016Z,96213.50
2022-08-30T05:01:02.710Z,96199.38
2022-08-30T05:03:29.353Z,96206.72
2022-08-30T05:05:55.914Z,96210.03
2022-08-30T05:08:24.772Z,96210.03
2022-08-30T05:10:51.916Z,96216.97
2022-08-30T05:13:20.832Z,96219.78
2022-08-30T05:15:51.226Z,96219.78
2022-08-30T05:18:21.391Z,96216.00
2022-08-30T05:20:47.964Z,96217.28
2022-08-30T05:23:14.766Z,96224.44
2022-08-30T05:25:42.368Z,96234.06
2022-08-30T05:28:09.469Z,96219.94
2022-08-30T05:30:37.277Z,96223.59
2022-08-30T05:33:03.927Z,96229.69
2022-08-30T05:35:30.540Z,96228.41
2022-08-30T05:37:57.203Z,96227.38
2022-08-30T05:40:23.824Z,96225.88
2022-08-30T05:42:51.301Z,96233.41
2022-08-30T05:45:18.080Z,96232.53
2022-08-30T05:47:44.613Z,96231.09
2022-08-30T05:50:11.412Z,96235.34
2022-08-30T05:52:38.869Z,96240.00
2022-08-30T05:55:07.809Z,96238.56
2022-08-30T05:57:36.635Z,96239.94
2022-08-30T06:00:11.595Z,96240.13
2022-08-30T06:02:38.323Z,96241.00
2022-08-30T06:05:05.232Z,96236.25
2022-08-30T06:07:32.407Z,96226.22
2022-08-30T06:09:58.947Z,96232.28
2022-08-30T06:12:25.820Z,96233.28
2022-08-30T06:14:53.607Z,96229.19
2022-08-30T06:17:20.468Z,96234.50
2022-08-30T06:19:47.006Z,96230.13
2022-08-30T06:22:13.626Z,96235.59
2022-08-30T06:24:57.099Z,96233.53
2022-08-30T06:27:24.284Z,96238.69
2022-08-30T06:29:52.068Z,96233.38
2022-08-30T06:32:18.911Z,96237.25
2022-08-30T06:34:45.483Z,96228.16
2022-08-30T06:37:11.999Z,96232.44
2022-08-30T06:39:57.535Z,96234.19
2022-08-30T06:42:24.474Z,96230.44
2022-08-30T06:44:51.411Z,96231.06
2022-08-30T06:47:18.147Z,96228.63
2022-08-30T06:49:44.718Z,96226.91
2022-08-30T06:52:11.704Z,96220.94
2022-08-30T06:54:38.753Z,96227.78
2022-08-30T06:57:05.493Z,96238.75
2022-08-30T06:59:33.179Z,96227.44
2022-08-30T07:01:59.868Z,96221.59
2022-08-30T07:04:26.524Z,96223.94
2022-08-30T07:06:53.303Z,96230.22
2022-08-30T07:09:20.299Z,96227.25
2022-08-30T07:11:50.378Z,96231.03
2022-08-30T07:14:16.911Z,96229.91
2022-08-30T07:16:44.464Z,96229.13
2022-08-30T07:19:18.577Z,96229.41
2022-08-30T07:21:49.350Z,96222.88
2022-08-30T07:24:16.813Z,96222.53
2022-08-30T07:26:49.096Z,96224.69
2022-08-30T07:29:17.029Z,96223.06
2022-08-30T07:31:44.365Z,96228.06
2022-08-30T07:34:10.990Z,96224.59
2022-08-30T07:36:38.923Z,96227.03
2022-08-30T07:39:06.942Z,96227.63
2022-08-30T07:41:38.572Z,96223.69
2022-08-30T07:44:09.315Z,96226.72
2022-08-30T07:46:38.292Z,96218.25
2022-08-30T07:49:05.960Z,96225.16
2022-08-30T07:51:38.569Z,96223.03
2022-08-30T07:54:05.329Z,96212.09
2022-08-30T07:56:31.856Z,96218.78
2022-08-30T07:58:58.372Z,96208.84
2022-08-30T08:01:25.337Z,96216.09
2022-08-30T08:03:52.391Z,96214.22
2022-08-30T08:06:21.882Z,96205.97
2022-08-30T08:08:48.925Z,96211.47
2022-08-30T08:11:22.510Z,96224.78
2022-08-30T08:13:54.232Z,96214.22
2022-08-30T08:16:23.364Z,96216.19
2022-08-30T08:18:50.093Z,96202.06
2022-08-30T08:21:16.704Z,96205.63
2022-08-30T08:23:43.408Z,96193.59
2022-08-30T08:26:10.069Z,96191.31
2022-08-30T08:28:36.764Z,96199.34
2022-08-30T08:31:03.834Z,96202.97
2022-08-30T08:33:30.675Z,96195.13
2022-08-30T08:35:57.213Z,96205.00
2022-08-30T08:38:23.756Z,96203.00
2022-08-30T08:41:29.070Z,96205.50
2022-08-30T08:43:55.811Z,96210.16
2022-08-30T08:46:41.140Z,96202.22
2022-08-30T08:49:12.490Z,96197.78
2022-08-30T08:51:59.185Z,96206.00
2022-08-30T08:54:49.334Z,96208.03
2022-08-30T08:57:17.046Z,96204.88
2022-08-30T08:59:45.396Z,96205.78
2022-08-30T09:02:29.809Z,96205.56
2022-08-30T09:05:01.200Z,96204.84
2022-08-30T09:07:32.244Z,96210.50
2022-08-30T09:10:00.609Z,96206.22
2022-08-30T09:12:28.144Z,96209.47
2022-08-30T09:15:01.774Z,96199.00
2022-08-30T09:17:28.550Z,96197.00
2022-08-30T09:19:55.630Z,96202.50
2022-08-30T09:22:26.858Z,96198.97
2022-08-30T09:25:10.995Z,96201.69
2022-08-30T09:27:39.530Z,96207.09
2022-08-30T09:30:28.810Z,96202.25
2022-08-30T09:33:03.729Z,96200.38
2022-08-30T09:35:44.408Z,96197.44
2022-08-30T09:38:18.475Z,96196.38
2022-08-30T09:40:45.098Z,96194.81
2022-08-30T09:43:17.690Z,96194.31
2022-08-30T09:45:47.491Z,96196.47
2022-08-30T09:48:33.855Z,96186.78
2022-08-30T09:51:10.914Z,96185.69
2022-08-30T09:56:48.114Z,96177.22
2022-08-30T09:59:42.764Z,96181.00
2022-08-30T10:02:38.896Z,96190.44
2022-08-30T10:05:23.705Z,96184.53
2022-08-30T10:08:18.406Z,96184.25
2022-08-30T10:10:56.135Z,96188.31
2022-08-30T10:13:29.610Z,96184.00
2022-08-30T10:16:19.341Z,96185.44
2022-08-30T10:19:01.677Z,96180.88
2022-08-30T10:21:37.333Z,96185.44
2022-08-30T10:24:20.777Z,96180.88
2022-08-30T10:26:55.717Z,96186.00
2022-08-30T10:29:39.490Z,96185.72
2022-08-30T10:32:29.733Z,96170.09
2022-08-30T10:35:03.467Z,96171.16
2022-08-30T10:37:34.919Z,96175.78
2022-08-30T10:40:32.260Z,96167.16
2022-08-30T10:43:03.042Z,96172.00
2022-08-30T10:45:33.085Z,96159.38
2022-08-30T10:48:02.410Z,96158.00
2022-08-30T10:50:41.277Z,96163.94
2022-08-30T10:53:16.674Z,96160.19
2022-08-30T10:55:52.162Z,96156.41
2022-08-30T10:58:19.889Z,96157.50
2022-08-30T11:00:58.257Z,96159.66
2022-08-30T11:03:36.843Z,96159.09
2022-08-30T11:06:14.817Z,96151.81
2022-08-30T11:09:12.448Z,96149.94
2022-08-30T11:12:00.777Z,96155.88
2022-08-30T11:14:29.636Z,96148.03
2022-08-30T11:17:00.331Z,96161.28
2022-08-30T11:19:39.581Z,96152.09
2022-08-30T11:22:15.286Z,96152.38
2022-08-30T11:25:10.141Z,96147.81
2022-08-30T11:27:56.450Z,96152.94
2022-08-30T11:30:27.179Z,96145.63
2022-08-30T11:33:03.184Z,96148.31
2022-08-30T11:35:52.489Z,96145.38
2022-08-30T11:38:25.513Z,96153.13
2022-08-30T11:41:07.741Z,96150.97
2022-08-30T11:43:39.876Z,96152.00
2022-08-30T11:46:37.527Z,96138.28
2022-08-30T11:49:16.337Z,96135.88
2022-08-30T11:51:46.687Z,96139.09
2022-08-30T11:54:52.922Z,96140.69
2022-08-30T11:57:38.253Z,96139.59
2022-08-30T12:00:25.329Z,96142.03
2022-08-30T12:03:00.227Z,96129.34
2022-08-30T12:05:35.836Z,96137.72
2022-08-30T12:08:04.524Z,96140.16
2022-08-30T12:10:47.291Z,96136.38
2022-08-30T12:13:35.431Z,96128.25
2022-08-30T12:16:03.397Z,96123.38
2022-08-30T12:18:52.346Z,96126.63
2022-08-30T12:21:22.025Z,96123.66
2022-08-30T12:23:48.737Z,96131.44
2022-08-30T12:26:17.510Z,96115.78
2022-08-30T12:28:49.174Z,96132.47
2022-08-30T12:31:22.168Z,96124.38
2022-08-30T12:34:03.292Z,96125.22
2022-08-30T12:36:40.397Z,96112.81
2022-08-30T12:39:23.512Z,96115.31
2022-08-30T12:41:50.504Z,96124.78
2022-08-30T12:44:26.533Z,96113.25
2022-08-30T12:47:01.408Z,96106.22
2022-08-30T12:49:34.092Z,96105.66
2022-08-30T12:52:38.644Z,96094.34
2022-08-30T12:55:17.687Z,96099.91
2022-08-30T12:57:54.722Z,96107.97
2022-08-30T13:00:29.511Z,96103.09
2022-08-30T13:03:01.888Z,96091.47
2022-08-30T13:05:44.953Z,96087.66
2022-08-30T13:08:37.107Z,96081.19
2022-08-30T13:11:29.388Z,96086.00
2022-08-30T13:14:18.385Z,96084.88
2022-08-30T13:16:46.108Z,96080.22
2022-08-30T13:19:32.664Z,96087.50
2022-08-30T13:22:00.043Z,96090.00
2022-08-30T13:24:27.096Z,96084.69
2022-08-30T13:26:56.750Z,96086.34
2022-08-30T13:29:27.197Z,96082.56
2022-08-30T13:31:54.563Z,96073.41
2022-08-30T13:34:22.696Z,96070.16
2022-08-30T13:36:57.184Z,96065.50
2022-08-30T13:39:24.378Z,96069.50
2022-08-30T13:41:52.400Z,96069.75
2022-08-30T13:44:19.083Z,96063.81
2022-08-30T13:46:54.010Z,96062.50
2022-08-30T13:52:20.901Z,96066.56
2022-08-30T13:54:50.040Z,96069.53
2022-08-30T13:57:53.432Z,96074.66
2022-08-30T14:00:12.248Z,96066.03
2022-08-30T14:02:45.107Z,96060.47
2022-08-30T14:05:30.822Z,96060.47
2022-08-30T14:08:00.038Z,96060.22
2022-08-30T14:10:32.434Z,96064.22
2022-08-30T14:13:08.023Z,96059.06
2022-08-30T14:15:38.832Z,96047.66
2022-08-30T14:18:06.815Z,96052.97
2022-08-30T14:20:35.487Z,96056.47
2022-08-30T14:23:10.031Z,96056.72
2022-08-30T14:25:37.893Z,96051.03
2022-08-30T14:28:07.635Z,96051.88
2022-08-30T14:30:36.658Z,96050.81
2022-08-30T14:33:03.624Z,96054.09
2022-08-30T14:35:30.304Z,96047.06
2022-08-30T14:37:57.168Z,96051.38
2022-08-30T14:40:23.976Z,96057.59
2022-08-30T14:42:50.623Z,96058.63
2022-08-30T14:45:17.966Z,96042.91
2022-08-30T14:47:46.546Z,96036.75
2022-08-30T14:50:14.401Z,96044.84
2022-08-30T14:52:40.982Z,96039.75
2022-08-30T14:55:12.710Z,96035.75
2022-08-30T14:57:39.375Z,96035.47
2022-08-30T15:00:09.885Z,96040.25
2022-08-30T15:02:36.872Z,96039.69
2022-08-30T15:05:04.359Z,96043.75
2022-08-30T15:07:34.892Z,96038.34
2022-08-30T15:10:01.490Z,96032.91
2022-08-30T15:12:28.075Z,96031.25
2022-08-30T15:14:55.772Z,96027.75
2022-08-30T15:17:23.892Z,96027.75
2022-08-30T15:19:51.190Z,96028.31
2022-08-30T15:22:17.922Z,96026.69
2022-08-30T15:24:44.586Z,96020.50
2022-08-30T15:27:15.478Z,96010.19
2022-08-30T15:29:42.301Z,96012.88
2022-08-30T15:32:08.880Z,96017.22
2022-08-30T15:34:35.977Z,96022.06
2022-08-30T15:37:03.325Z,96020.44
2022-08-30T15:39:30.293Z,96020.94
2022-08-30T15:42:00.750Z,96025.03
2022-08-30T15:44:30.603Z,96021.81
2022-08-30T15:46:57.400Z,96018.81
2022-08-30T15:49:24.402Z,96020.94
2022-08-30T15:51:53.868Z,96031.00
2022-08-30T15:54:22.785Z,96022.94
2022-08-30T15:56:49.335Z,96020.28
2022-08-30T15:59:17.590Z,96015.13
2022-08-30T16:01:45.427Z,96025.69
2022-08-30T16:04:15.068Z,96014.13
2022-08-30T16:06:41.940Z,96003.31
2022-08-30T16:09:10.036Z,96001.63
2022-08-30T16:11:38.580Z,96011.41
2022-08-30T16:14:06.483Z,96001.44
2022-08-30T16:16:33.449Z,96020.03
2022-08-30T16:19:01.840Z,96013.50
2022-08-30T16:21:30.802Z,96018.13
2022-08-30T16:23:58.193Z,96015.50
2022-08-30T16:26:25.961Z,96013.69
2022-08-30T16:28:53.133Z,96010.81
2022-08-30T16:31:21.088Z,96013.75
2022-08-30T16:33:48.255Z,96021.28
2022-08-30T16:36:20.258Z,96019.38
2022-08-30T16:38:48.600Z,96018.00
2022-08-30T16:41:21.059Z,96020.16
2022-08-30T16:43:49.300Z,96021.78
2022-08-30T16:46:18.448Z,96021.78
2022-08-30T16:48:46.290Z,96026.13
2022-08-30T16:51:19.094Z,96024.56
2022-08-30T16:53:46.131Z,96024.63
2022-08-30T16:56:24.341Z,96029.53
2022-08-30T16:58:56.387Z,96032.03
2022-08-30T17:01:28.203Z,96033.94
2022-08-30T17:03:54.905Z,96039.38
2022-08-30T17:06:21.926Z,96042.91
2022-08-30T17:08:48.487Z,96043.50
2022-08-30T17:11:22.393Z,96037.03
2022-08-30T17:13:48.932Z,96032.47
2022-08-30T17:16:17.770Z,96050.00
2022-08-30T17:18:50.324Z,96050.25
2022-08-30T17:21:16.846Z,96055.09
2022-08-30T17:23:43.694Z,96058.63
2022-08-30T17:26:11.516Z,96071.00
2022-08-30T17:28:39.885Z,96071.81
2022-08-30T17:31:09.197Z,96068.53
2022-08-30T17:33:39.005Z,96072.03
2022-08-30T17:36:07.763Z,96074.97
2022-08-30T17:38:34.409Z,96075.19
2022-08-30T17:41:05.463Z,96075.97
2022-08-30T17:43:35.813Z,96079.19
2022-08-30T17:46:18.567Z,96087.72
2022-08-30T17:48:45.697Z,96084.47
2022-08-30T17:51:13.215Z,96093.53
2022-08-30T17:53:40.024Z,96093.22
2022-08-30T17:56:06.649Z,96099.88
2022-08-30T17:58:34.660Z,96099.03
2022-08-30T18:01:14.360Z,96105.91
2022-08-30T18:03:42.226Z,96105.03
2022-08-30T18:06:12.894Z,96105.28
2022-08-30T18:08:40.319Z,96113.84
2022-08-30T18:11:07.593Z,96112.38
2022-08-30T18:13:34.681Z,96117.38
2022-08-30T18:16:02.614Z,96113.88
2022-08-30T18:18:29.661Z,96121.91
2022-08-30T18:20:56.397Z,96128.03
2022-08-30T18:23:24.137Z,96120.16
2022-08-30T18:26:02.093Z,96124.59
2022-08-30T18:28:29.318Z,96115.66
2022-08-30T18:30:57.020Z,96118.22
2022-08-30T18:33:28.578Z,96110.06
2022-08-30T18:35:55.965Z,96118.56
2022-08-30T18:38:23.961Z,96119.56
2022-08-30T18:40:52.135Z,96125.41
2022-08-30T18:43:18.955Z,96119.84
2022-08-30T18:45:51.398Z,96115.25
2022-08-30T18:48:19.316Z,96120.69
2022-08-30T18:50:46.327Z,96135.22
2022-08-30T18:53:14.738Z,96129.84
2022-08-30T18:55:55.546Z,96127.75
2022-08-30T18:58:22.212Z,96117.56
2022-08-30T19:00:49.478Z,96130.72
2022-08-30T19:03:18.762Z,96127.47
2022-08-30T19:05:45.572Z,96118.88
2022-08-30T19:08:13.484Z,96120.63
2022-08-30T19:10:40.216Z,96118.66
2022-08-30T19:13:07.115Z,96103.47
2022-08-30T19:15:35.625Z,96114.88
2022-08-30T19:18:07.382Z,96113.66
2022-08-30T19:20:45.263Z,96112.00
2022-08-30T19:23:12.752Z,96116.28
2022-08-30T19:25:40.719Z,96114.34
2022-08-30T19:28:07.928Z,96110.78
2022-08-30T19:30:35.693Z,96112.91
2022-08-30T19:33:02.338Z,96124.13
2022-08-30T19:35:29.914Z,96116.91
2022-08-30T19:37:57.460Z,96125.75
2022-08-30T19:40:24.125Z,96127.88
2022-08-30T19:42:52.587Z,96121.88
2022-08-30T19:45:21.758Z,96128.19
2022-08-30T19:47:49.304Z,96123.66
2022-08-30T19:50:16.952Z,96128.50
2022-08-30T19:52:45.637Z,96123.72
2022-08-30T19:55:14.007Z,96131.50
2022-08-30T19:57:43.436Z,96126.41
2022-08-30T20:00:12.514Z,96122.38
2022-08-30T20:02:43.347Z,96124.56
2022-08-30T20:05:12.574Z,96123.47
2022-08-30T20:07:39.924Z,96123.97
2022-08-30T20:10:10.287Z,96120.72
2022-08-30T20:12:39.699Z,96126.09
2022-08-30T20:15:14.668Z,96121.81
2022-08-30T20:18:03.329Z,96121.22
2022-08-30T20:20:33.318Z,96129.00
2022-08-30T20:23:00.557Z,96121.22
2022-08-30T20:25:28.777Z,96116.44
2022-08-30T20:27:56.046Z,96119.44
2022-08-30T20:30:22.631Z,96120.22
2022-08-30T20:32:49.469Z,96110.53
2022-08-30T20:35:17.771Z,96113.69
2022-08-30T20:37:45.571Z,96113.13
2022-08-30T20:40:15.844Z,96124.97
2022-08-30T20:42:45.783Z,96116.38
2022-08-30T20:45:15.057Z,96118.22
2022-08-30T20:47:42.985Z,96122.22
2022-08-30T20:50:13.903Z,96126.44
2022-08-30T20:52:41.218Z,96129.94
2022-08-30T20:55:09.422Z,96133.72
2022-08-30T20:57:36.175Z,96128.63
2022-08-30T21:00:04.353Z,96133.34
2022-08-30T21:02:33.659Z,96130.00
2022-08-30T21:05:00.312Z,96129.47
2022-08-30T21:07:27.156Z,96128.25
2022-08-30T21:09:54.096Z,96131.41
2022-08-30T21:12:20.742Z,96129.69
2022-08-30T21:14:47.322Z,96123.66
2022-08-30T21:17:13.888Z,96127.31
2022-08-30T21:19:43.838Z,96132.09
2022-08-30T21:22:11.360Z,96130.63
2022-08-30T21:24:38.258Z,96126.72
2022-08-30T21:27:05.127Z,96131.66
2022-08-30T21:29:33.214Z,96139.25
2022-08-30T21:31:59.774Z,96127.66
2022-08-30T21:34:26.456Z,96131.38
2022-08-30T21:36:53.323Z,96142.19
2022-08-30T21:39:22.860Z,96140.09
2022-08-30T21:41:53.033Z,96140.88
2022-08-30T21:44:22.599Z,96136.59
2022-08-30T21:46:52.180Z,96140.78
2022-08-30T21:49:21.664Z,96140.00
2022-08-30T21:51:50.731Z,96142.31
2022-08-30T21:54:18.321Z,96135.00
2022-08-30T21:56:46.992Z,96142.25
2022-08-30T21:59:14.033Z,96135.59
2022-08-30T22:01:43.267Z,96143.94
2022-08-30T22:04:11.184Z,96146.94
2022-08-30T22:06:40.705Z,96143.34
2022-08-30T22:09:10.527Z,96137.22
2022-08-30T22:11:37.437Z,96141.16
2022-08-30T22:14:05.433Z,96135.59
2022-08-30T22:16:32.553Z,96131.06
2022-08-30T22:18:59.356Z,96129.66
2022-08-30T22:21:29.323Z,96124.09
2022-08-30T22:23:56.973Z,96123.28
2022-08-30T22:26:24.103Z,96124.09
2022-08-30T22:28:52.514Z,96129.91
2022-08-30T22:31:20.561Z,96123.53
2022-08-30T22:33:48.020Z,96138.13
2022-08-30T22:36:21.174Z,96133.41
2022-08-30T22:38:51.400Z,96129.56
2022-08-30T22:41:25.559Z,96133.16
2022-08-30T22:43:57.055Z,96134.13
2022-08-30T22:46:25.656Z,96139.47
2022-08-30T22:49:02.373Z,96130.16
2022-08-30T22:51:29.576Z,96124.03
2022-08-30T22:53:56.611Z,96115.91
2022-08-30T22:56:25.845Z,96114.84
2022-08-30T22:58:53.613Z,96112.31
2022-08-30T23:01:20.190Z,96107.34
2022-08-30T23:03:46.876Z,96114.19
2022-08-30T23:06:13.489Z,96110.69
2022-08-30T23:08:40.033Z,96107.56
2022-08-30T23:11:06.738Z,96103.84
2022-08-30T23:13:33.387Z,96104.34
2022-08-30T23:16:05.256Z,96108.38
2022-08-30T23:18:33.134Z,96108.03
2022-08-30T23:21:05.204Z,96107.25
2022-08-30T23:23:50.188Z,96110.94
2022-08-30T23:26:38.404Z,96101.78
2022-08-30T23:29:24.829Z,96107.69
2022-08-30T23:32:10.254Z,96105.00
2022-08-30T23:34:55.434Z,96112.47
2022-08-30T23:37:40.990Z,96106.56
2022-08-30T23:40:26.720Z,96100.72
2022-08-30T23:43:11.974Z,96096.56
2022-08-30T23:45:57.448Z,96094.44
2022-08-30T23:48:50.568Z,96089.69
2022-08-30T23:51:37.080Z,96089.09
2022-08-30T23:54:23.967Z,96081.91
2022-08-30T23:57:09.392Z,96076.31
2022-08-30T23:59:54.549Z,96081.78
